Time;durP1;ratioP1;P1;durP2;ratioP2;P2;SDS_P1;SDS_P2;PMS_P1;PMS_P2;Temp;Humidity;BMP_temperature;BMP_pressure;BME280_temperature;BME280_humidity;BME280_pressure;Samples;Min_cycle;Max_cycle;Signal;HPM_P1;HPM_P2
2022/01/11 00:00:15;;;;;;;35.20;16.30;;;3.80;99.90;;;;;;5089152;28;20028;-45
2022/01/11 00:02:44;;;;;;;33.60;17.20;;;3.90;99.90;;;;;;5085345;28;20024;-45
2022/01/11 00:07:45;;;;;;;37.80;18.42;;;3.90;99.90;;;;;;5089055;28;20161;-45
2022/01/11 00:10:19;;;;;;;34.28;17.15;;;3.90;99.90;;;;;;5088753;28;20032;-45
2022/01/11 00:12:45;;;;;;;35.45;17.35;;;3.90;99.90;;;;;;5088558;28;20081;-46
2022/01/11 00:15:11;;;;;;;36.42;17.92;;;3.90;99.90;;;;;;5089155;28;20021;-44
2022/01/11 00:17:36;;;;;;;32.75;16.83;;;3.90;99.90;;;;;;5088882;28;20068;-43
2022/01/11 00:20:03;;;;;;;37.85;17.63;;;3.90;99.90;;;;;;5088722;28;20024;-45
2022/01/11 00:22:32;;;;;;;35.33;18.67;;;3.90;99.90;;;;;;5086980;28;20020;-45
2022/01/11 00:24:58;;;;;;;36.22;17.85;;;3.90;99.90;;;;;;5089814;28;20017;-45
2022/01/11 00:27:23;;;;;;;40.70;19.30;;;3.90;99.90;;;;;;5092377;28;20105;-44
2022/01/11 00:29:52;;;;;;;40.30;18.73;;;3.90;99.90;;;;;;5092688;28;20028;-43
2022/01/11 00:32:27;;;;;;;38.03;17.98;;;3.90;99.90;;;;;;5092002;28;20027;-43
2022/01/11 00:34:55;;;;;;;39.58;20.85;;;3.90;99.90;;;;;;5082416;28;20046;-44
2022/01/11 00:37:21;;;;;;;41.60;21.17;;;3.90;99.90;;;;;;5080153;28;20094;-43
2022/01/11 00:39:49;;;;;;;38.60;18.15;;;4.00;99.90;;;;;;5091067;28;20024;-45
2022/01/11 00:42:16;;;;;;;40.78;19.33;;;4.00;99.90;;;;;;5092249;28;20016;-43
2022/01/11 00:44:42;;;;;;;42.33;19.25;;;4.00;99.90;;;;;;5091994;28;20024;-44
2022/01/11 00:47:08;;;;;;;41.50;18.50;;;4.00;99.90;;;;;;5092690;28;20109;-46
2022/01/11 00:49:34;;;;;;;38.25;19.02;;;3.90;99.90;;;;;;5092275;28;20070;-46
2022/01/11 00:52:00;;;;;;;39.05;18.85;;;4.00;99.90;;;;;;5090493;28;20024;-45
2022/01/11 00:54:26;;;;;;;36.00;17.65;;;3.90;99.90;;;;;;5091877;28;20020;-49
2022/01/11 00:56:52;;;;;;;39.25;19.90;;;3.90;99.90;;;;;;5092145;28;20374;-45
2022/01/11 00:59:17;;;;;;;37.08;18.88;;;3.90;99.90;;;;;;5092027;28;20028;-45
2022/01/11 01:01:43;;;;;;;42.03;19.33;;;3.90;99.90;;;;;;5090762;28;20016;-44
2022/01/11 01:04:09;;;;;;;42.83;19.15;;;3.90;99.90;;;;;;5091934;28;20016;-46
2022/01/11 01:06:35;;;;;;;36.88;19.25;;;4.00;99.90;;;;;;5085517;28;20024;-45
2022/01/11 01:09:00;;;;;;;36.90;17.90;;;3.90;99.90;;;;;;5084043;28;20020;-43
2022/01/11 01:11:26;;;;;;;36.25;18.58;;;3.90;99.90;;;;;;5091406;28;20024;-44
2022/01/11 01:13:52;;;;;;;37.25;17.42;;;3.90;99.90;;;;;;5091474;28;20520;-45
2022/01/11 01:16:19;;;;;;;36.97;18.75;;;3.90;99.90;;;;;;5091809;28;20036;-43
2022/01/11 01:18:45;;;;;;;31.42;15.98;;;3.90;99.90;;;;;;5091610;28;20026;-43
2022/01/11 01:21:11;;;;;;;37.15;18.00;;;3.90;99.90;;;;;;5091589;28;20032;-47
2022/01/11 01:23:36;;;;;;;34.53;17.80;;;3.90;99.90;;;;;;5090999;28;20051;-49
2022/01/11 01:26:02;;;;;;;34.88;18.15;;;3.90;99.90;;;;;;5091502;28;20043;-44
2022/01/11 01:28:28;;;;;;;36.83;17.73;;;3.90;99.90;;;;;;5090547;28;20679;-43
2022/01/11 01:30:55;;;;;;;35.20;16.70;;;3.90;99.90;;;;;;5089788;28;20099;-44
2022/01/11 01:33:21;;;;;;;38.70;18.67;;;4.00;99.90;;;;;;5089565;28;20031;-42
2022/01/11 01:35:53;;;;;;;35.25;18.13;;;3.90;99.90;;;;;;5083464;28;20028;-44
2022/01/11 01:38:23;;;;;;;33.05;18.20;;;3.90;99.90;;;;;;5079251;28;20016;-46
2022/01/11 01:40:50;;;;;;;32.50;15.77;;;3.90;99.90;;;;;;5080922;28;20105;-44
2022/01/11 01:43:16;;;;;;;35.15;14.90;;;3.90;99.90;;;;;;5089232;28;20040;-43
2022/01/11 01:45:45;;;;;;;31.58;16.05;;;4.00;99.90;;;;;;5089468;28;20032;-43
2022/01/11 01:48:12;;;;;;;33.25;16.23;;;3.90;99.90;;;;;;5089394;28;20043;-43
2022/01/11 01:50:38;;;;;;;27.70;14.80;;;3.90;99.90;;;;;;5089673;28;20492;-43
2022/01/11 01:53:07;;;;;;;28.95;16.10;;;3.90;99.90;;;;;;5088403;28;20051;-43
2022/01/11 01:55:33;;;;;;;29.45;16.10;;;3.90;99.90;;;;;;5089648;28;20419;-44
2022/01/11 01:57:59;;;;;;;25.98;14.02;;;3.90;99.90;;;;;;5089316;28;20059;-42
2022/01/11 02:00:27;;;;;;;26.70;14.27;;;3.90;99.90;;;;;;5089806;28;20235;-43
2022/01/11 02:03:04;;;;;;;29.08;14.93;;;3.90;99.90;;;;;;5087130;28;20143;-43
2022/01/11 02:05:30;;;;;;;25.85;14.68;;;3.90;99.90;;;;;;5089610;28;20028;-43
2022/01/11 02:07:55;;;;;;;25.08;13.80;;;3.90;99.90;;;;;;5079698;28;20065;-43
2022/01/11 02:10:21;;;;;;;24.42;13.57;;;3.90;99.90;;;;;;5080722;28;20031;-43
2022/01/11 02:12:46;;;;;;;29.90;14.75;;;3.90;99.90;;;;;;5088457;28;20032;-44
2022/01/11 02:15:12;;;;;;;24.00;13.27;;;3.90;99.90;;;;;;5089363;28;20028;-45
2022/01/11 02:17:38;;;;;;;27.70;14.55;;;3.90;99.90;;;;;;5088878;28;20020;-44
2022/01/11 02:20:04;;;;;;;27.60;14.52;;;3.90;99.90;;;;;;5088908;28;20089;-43
2022/01/11 02:22:30;;;;;;;26.35;14.38;;;3.90;99.90;;;;;;5088258;28;20028;-44
2022/01/11 02:24:55;;;;;;;24.63;13.65;;;3.90;99.90;;;;;;5088202;28;20411;-43
2022/01/11 02:27:21;;;;;;;24.85;13.93;;;3.90;99.90;;;;;;5088328;28;20035;-46
2022/01/11 02:29:47;;;;;;;25.10;14.35;;;3.90;99.90;;;;;;5084710;28;20039;-46
2022/01/11 02:32:12;;;;;;;23.00;13.50;;;3.90;99.90;;;;;;5080702;28;20024;-44
2022/01/11 02:34:39;;;;;;;24.23;13.70;;;3.90;99.90;;;;;;5088149;28;20095;-43
2022/01/11 02:37:05;;;;;;;25.38;13.80;;;3.90;99.90;;;;;;5084584;28;20039;-47
2022/01/11 02:39:31;;;;;;;22.70;13.05;;;3.90;99.90;;;;;;5076039;28;20507;-44
2022/01/11 02:41:58;;;;;;;23.02;13.52;;;3.90;99.90;;;;;;5087732;28;20086;-45
2022/01/11 02:44:23;;;;;;;27.13;14.88;;;3.90;99.90;;;;;;5088310;28;20393;-44
2022/01/11 02:46:50;;;;;;;27.13;15.07;;;3.90;99.90;;;;;;5088386;28;20027;-45
2022/01/11 02:49:15;;;;;;;27.52;13.77;;;3.90;99.90;;;;;;5088288;28;20032;-46
2022/01/11 02:51:41;;;;;;;26.90;13.98;;;3.90;99.90;;;;;;5061654;28;20238;-44
2022/01/11 02:54:07;;;;;;;21.80;12.98;;;3.80;99.90;;;;;;5047718;28;20036;-45
2022/01/11 02:56:33;;;;;;;25.23;14.18;;;3.90;99.90;;;;;;5047862;28;20114;-44
2022/01/11 02:58:59;;;;;;;22.45;12.98;;;3.90;99.90;;;;;;5047797;28;20017;-45
2022/01/11 03:01:25;;;;;;;23.05;13.20;;;3.90;99.90;;;;;;5047658;28;20027;-46
2022/01/11 03:03:51;;;;;;;22.73;13.18;;;3.80;99.90;;;;;;5047558;28;20051;-45
2022/01/11 03:06:17;;;;;;;25.30;14.18;;;3.90;99.90;;;;;;5047674;28;20035;-45
2022/01/11 03:08:46;;;;;;;23.65;13.13;;;3.90;99.90;;;;;;5071603;28;20116;-45
2022/01/11 03:11:14;;;;;;;23.40;13.45;;;3.90;99.90;;;;;;5081547;28;20186;-45
2022/01/11 03:13:41;;;;;;;24.08;12.77;;;3.90;99.90;;;;;;5087339;28;20035;-45
2022/01/11 03:16:08;;;;;;;23.00;12.20;;;3.90;99.90;;;;;;5081809;28;20107;-45
2022/01/11 03:18:34;;;;;;;21.48;12.15;;;3.80;99.90;;;;;;5069572;28;20102;-45
2022/01/11 03:21:00;;;;;;;24.30;13.55;;;3.90;99.90;;;;;;5076794;28;20044;-45
2022/01/11 03:23:26;;;;;;;22.60;13.30;;;3.90;99.90;;;;;;5064743;28;20037;-48
2022/01/11 03:25:52;;;;;;;23.13;13.68;;;3.80;99.90;;;;;;5067363;28;20239;-44
2022/01/11 03:28:20;;;;;;;22.17;12.90;;;3.80;99.90;;;;;;5056585;28;20025;-44
2022/01/11 03:30:46;;;;;;;21.70;12.23;;;3.80;99.90;;;;;;5057117;28;20749;-44
2022/01/11 03:33:12;;;;;;;22.75;13.32;;;3.90;99.90;;;;;;5054239;28;20025;-45
2022/01/11 03:35:39;;;;;;;22.80;13.27;;;3.90;99.90;;;;;;5056215;28;20504;-46
2022/01/11 03:38:06;;;;;;;23.58;12.73;;;3.90;99.90;;;;;;5057089;28;20416;-46
2022/01/11 03:40:33;;;;;;;24.77;13.05;;;3.80;99.90;;;;;;5063613;28;20028;-44
2022/01/11 03:42:59;;;;;;;22.48;13.05;;;3.80;99.90;;;;;;5056868;28;20025;-45
2022/01/11 03:45:26;;;;;;;22.30;12.82;;;3.80;99.90;;;;;;5057727;28;20063;-46
2022/01/11 03:47:53;;;;;;;24.23;13.38;;;3.80;99.90;;;;;;5056296;28;20064;-44
2022/01/11 03:50:20;;;;;;;21.77;13.00;;;3.80;99.90;;;;;;5057900;28;20047;-48
2022/01/11 03:52:46;;;;;;;20.35;11.93;;;3.80;99.90;;;;;;5056418;28;20029;-46
2022/01/11 03:55:15;;;;;;;21.98;13.57;;;3.80;99.90;;;;;;5055370;28;20032;-44
2022/01/11 03:57:41;;;;;;;22.20;13.35;;;3.80;99.90;;;;;;5057192;28;20032;-45
2022/01/11 04:00:13;;;;;;;21.63;12.32;;;3.80;99.90;;;;;;5058197;28;20165;-46
2022/01/11 04:02:39;;;;;;;22.80;12.50;;;3.80;99.90;;;;;;5060217;28;20553;-45
2022/01/11 04:05:06;;;;;;;21.20;12.15;;;3.80;99.90;;;;;;5060073;28;20154;-45
2022/01/11 04:07:32;;;;;;;25.20;12.93;;;3.80;99.90;;;;;;5061469;28;20040;-45
2022/01/11 04:09:57;;;;;;;21.20;12.05;;;3.80;99.90;;;;;;5072703;28;20020;-44
2022/01/11 04:12:23;;;;;;;25.75;13.57;;;3.80;99.90;;;;;;5060722;28;20047;-46
2022/01/11 04:14:50;;;;;;;24.17;13.75;;;3.80;99.90;;;;;;5066914;28;20027;-46
2022/01/11 04:17:16;;;;;;;25.27;14.23;;;3.80;99.90;;;;;;5071042;28;20406;-46
2022/01/11 04:19:42;;;;;;;21.58;12.95;;;3.80;99.90;;;;;;5070576;28;20020;-45
2022/01/11 04:22:07;;;;;;;25.55;13.68;;;3.70;99.90;;;;;;5070938;28;20023;-45
2022/01/11 04:24:33;;;;;;;23.95;13.75;;;3.80;99.90;;;;;;5070176;28;20028;-45
2022/01/11 04:26:59;;;;;;;25.80;13.30;;;3.80;99.90;;;;;;5070823;28;20074;-45
2022/01/11 04:29:24;;;;;;;23.88;13.85;;;3.80;99.90;;;;;;5070283;28;20029;-45
2022/01/11 04:31:50;;;;;;;24.30;13.68;;;3.80;99.90;;;;;;5070583;28;20020;-45
2022/01/11 04:34:15;;;;;;;26.73;13.90;;;3.80;99.90;;;;;;5070160;28;20035;-47
2022/01/11 04:36:41;;;;;;;23.52;12.65;;;3.80;99.90;;;;;;5070432;28;20024;-48
2022/01/11 04:39:10;;;;;;;25.05;13.90;;;3.80;99.90;;;;;;5077555;28;20021;-44
2022/01/11 04:41:36;;;;;;;22.55;12.30;;;3.80;99.90;;;;;;5087410;28;20024;-45
2022/01/11 04:44:02;;;;;;;23.70;14.02;;;3.80;99.90;;;;;;5090216;28;20023;-44
2022/01/11 04:46:28;;;;;;;21.15;12.45;;;3.80;99.90;;;;;;5090936;28;20026;-45
2022/01/11 04:48:54;;;;;;;27.35;13.23;;;3.70;99.90;;;;;;5088882;28;20054;-43
2022/01/11 04:51:20;;;;;;;23.52;12.43;;;3.80;99.90;;;;;;5090467;28;20031;-46
2022/01/11 04:53:49;;;;;;;24.92;13.30;;;3.70;99.90;;;;;;5089891;28;20028;-45
2022/01/11 04:56:15;;;;;;;23.13;14.25;;;3.70;99.90;;;;;;5075499;28;20029;-47
2022/01/11 04:58:41;;;;;;;24.23;14.00;;;3.70;99.90;;;;;;5069802;28;20048;-45
2022/01/11 05:01:07;;;;;;;27.33;13.93;;;3.70;99.90;;;;;;5070878;28;20466;-45
2022/01/11 05:03:33;;;;;;;24.42;13.25;;;3.70;99.90;;;;;;5070918;28;20029;-45
2022/01/11 05:05:58;;;;;;;26.85;13.57;;;3.70;99.90;;;;;;5071736;28;20471;-46
2022/01/11 05:08:24;;;;;;;23.08;13.65;;;3.70;99.90;;;;;;5078547;28;20051;-46
2022/01/11 05:10:50;;;;;;;24.02;12.98;;;3.70;99.90;;;;;;5083431;28;20034;-44
2022/01/11 05:13:17;;;;;;;20.90;12.55;;;3.70;99.90;;;;;;5091065;28;20421;-46
2022/01/11 05:15:43;;;;;;;21.73;12.65;;;3.70;99.90;;;;;;5091609;28;20470;-45
2022/01/11 05:18:10;;;;;;;26.02;13.65;;;3.70;99.90;;;;;;5089839;28;20111;-45
2022/01/11 05:20:36;;;;;;;27.95;14.80;;;3.70;99.90;;;;;;5090351;28;20035;-47
2022/01/11 05:23:02;;;;;;;22.63;13.15;;;3.70;99.90;;;;;;5089230;28;20105;-45
2022/01/11 05:25:28;;;;;;;24.45;13.32;;;3.70;99.90;;;;;;5090269;28;20035;-44
2022/01/11 05:27:54;;;;;;;20.90;12.85;;;3.70;99.90;;;;;;5091350;28;20449;-44
2022/01/11 05:30:20;;;;;;;28.23;14.90;;;3.70;99.90;;;;;;5091790;28;20031;-45
2022/01/11 05:32:48;;;;;;;25.45;13.80;;;3.70;99.90;;;;;;5091385;28;20379;-46
2022/01/11 05:35:14;;;;;;;25.52;14.43;;;3.70;99.90;;;;;;5073083;28;20549;-44
2022/01/11 05:37:40;;;;;;;22.63;13.00;;;3.70;99.90;;;;;;5084131;28;20024;-46
2022/01/11 05:40:07;;;;;;;26.02;14.38;;;3.70;99.90;;;;;;5082926;28;20016;-45
2022/01/11 05:42:33;;;;;;;27.30;14.40;;;3.60;99.90;;;;;;5091331;28;20020;-47
2022/01/11 05:44:58;;;;;;;24.50;13.80;;;3.60;99.90;;;;;;5090468;28;20405;-47
2022/01/11 05:47:24;;;;;;;24.25;14.45;;;3.60;99.90;;;;;;5091280;28;20038;-44
2022/01/11 05:49:50;;;;;;;25.30;14.60;;;3.60;99.90;;;;;;5090776;28;20092;-45
2022/01/11 05:52:15;;;;;;;26.85;14.23;;;3.60;99.90;;;;;;5088838;28;20067;-48
2022/01/11 05:54:41;;;;;;;26.02;14.52;;;3.60;99.90;;;;;;5081699;28;20059;-46
2022/01/11 05:57:07;;;;;;;22.40;13.35;;;3.60;99.90;;;;;;5090697;28;20413;-45
2022/01/11 05:59:32;;;;;;;25.00;14.10;;;3.60;99.90;;;;;;5091190;28;20036;-45
2022/01/11 06:01:58;;;;;;;25.05;13.38;;;3.60;99.90;;;;;;5087830;28;20024;-45
2022/01/11 06:04:24;;;;;;;23.50;13.13;;;3.60;99.90;;;;;;5078338;28;20031;-44
2022/01/11 06:06:50;;;;;;;27.25;13.93;;;3.60;99.90;;;;;;5089437;28;20013;-45
2022/01/11 06:09:16;;;;;;;27.40;13.57;;;3.60;99.90;;;;;;5082940;28;20454;-47
2022/01/11 06:11:41;;;;;;;23.23;13.20;;;3.60;99.90;;;;;;5081773;28;20020;-44
2022/01/11 06:14:07;;;;;;;24.02;13.43;;;3.70;99.90;;;;;;5089741;28;20024;-44
2022/01/11 06:16:32;;;;;;;27.20;14.38;;;3.60;99.90;;;;;;5090556;28;20047;-48
2022/01/11 06:18:58;;;;;;;26.02;13.57;;;3.60;99.90;;;;;;5070461;28;20070;-44
2022/01/11 06:21:23;;;;;;;23.40;13.52;;;3.60;99.90;;;;;;5060001;28;20069;-44
2022/01/11 06:23:49;;;;;;;23.95;13.25;;;3.60;99.90;;;;;;5057414;28;20025;-47
2022/01/11 06:26:15;;;;;;;24.95;13.57;;;3.70;99.90;;;;;;5076466;28;20020;-45
2022/01/11 06:28:41;;;;;;;23.52;12.80;;;3.70;99.90;;;;;;5060188;28;20020;-44
2022/01/11 06:31:08;;;;;;;29.92;15.18;;;3.70;99.90;;;;;;5081776;28;20031;-44
2022/01/11 06:33:34;;;;;;;25.48;14.85;;;3.70;99.90;;;;;;5080012;28;20114;-45
2022/01/11 06:35:59;;;;;;;26.00;14.10;;;3.70;99.90;;;;;;5081241;28;20639;-45
2022/01/11 06:38:25;;;;;;;26.25;14.35;;;3.70;99.90;;;;;;5076271;28;20064;-44
2022/01/11 06:40:51;;;;;;;23.60;13.10;;;3.70;99.90;;;;;;5078455;28;20376;-45
2022/01/11 06:43:16;;;;;;;25.27;13.23;;;3.70;99.90;;;;;;5055675;28;20089;-45
2022/01/11 06:45:42;;;;;;;28.55;15.00;;;3.70;99.90;;;;;;5061703;28;20044;-45
2022/01/11 06:48:08;;;;;;;31.60;15.88;;;3.60;99.90;;;;;;5081272;28;20093;-46
2022/01/11 06:50:34;;;;;;;27.73;14.40;;;3.70;99.90;;;;;;5059423;28;20039;-46
2022/01/11 06:52:59;;;;;;;25.45;13.18;;;3.70;99.90;;;;;;5049124;28;20613;-45
2022/01/11 06:55:25;;;;;;;26.45;14.73;;;3.70;99.90;;;;;;5048929;28;20106;-45
2022/01/11 06:57:51;;;;;;;26.45;14.10;;;3.70;99.90;;;;;;5064127;28;20047;-44
2022/01/11 07:00:17;;;;;;;28.38;14.68;;;3.70;99.90;;;;;;5051763;28;20748;-46
2022/01/11 07:02:46;;;;;;;25.08;14.18;;;3.70;99.90;;;;;;5064496;28;20110;-48
2022/01/11 07:05:11;;;;;;;29.55;14.38;;;3.70;99.90;;;;;;5077264;28;20013;-45
2022/01/11 07:07:37;;;;;;;29.40;14.77;;;3.70;99.90;;;;;;5069843;28;20028;-46
2022/01/11 07:10:03;;;;;;;25.58;13.45;;;3.70;99.90;;;;;;5050133;28;20021;-46
2022/01/11 07:12:29;;;;;;;28.20;14.93;;;3.70;99.90;;;;;;5052233;28;20430;-44
2022/01/11 07:14:54;;;;;;;29.08;14.52;;;3.70;99.90;;;;;;5060053;28;20120;-44
2022/01/11 07:17:22;;;;;;;26.08;13.95;;;3.70;99.90;;;;;;5057119;28;20061;-45
2022/01/11 07:19:48;;;;;;;33.58;14.55;;;3.70;99.90;;;;;;5062203;28;20056;-44
2022/01/11 07:22:33;;;;;;;30.13;14.88;;;3.70;99.90;;;;;;5051137;28;20600;-44
2022/01/11 07:24:59;;;;;;;29.27;14.70;;;3.70;99.90;;;;;;5068678;28;20067;-44
2022/01/11 07:27:24;;;;;;;30.17;14.68;;;3.70;99.90;;;;;;5068795;28;20025;-45
2022/01/11 07:29:50;;;;;;;28.02;14.27;;;3.70;99.90;;;;;;5055884;28;20183;-48
2022/01/11 07:32:16;;;;;;;33.03;15.80;;;3.70;99.90;;;;;;5064505;28;20024;-44
2022/01/11 07:34:41;;;;;;;30.15;17.27;;;3.70;99.90;;;;;;5075484;28;20012;-48
2022/01/11 07:37:07;;;;;;;27.60;13.95;;;3.70;99.90;;;;;;5061697;28;20894;-44
2022/01/11 07:39:33;;;;;;;26.45;14.18;;;3.70;99.90;;;;;;5064161;28;20562;-44
2022/01/11 07:41:59;;;;;;;30.58;15.18;;;3.70;99.90;;;;;;5060186;28;20174;-47
2022/01/11 07:44:25;;;;;;;30.42;15.15;;;3.70;99.90;;;;;;5048354;28;20092;-46
2022/01/11 07:46:52;;;;;;;32.97;15.93;;;3.70;99.90;;;;;;5052030;28;20028;-45
2022/01/11 07:49:18;;;;;;;27.33;14.38;;;3.70;99.90;;;;;;5051635;28;20402;-45
2022/01/11 07:51:43;;;;;;;34.35;14.68;;;3.60;99.90;;;;;;5060370;28;20041;-46
2022/01/11 07:54:09;;;;;;;31.98;15.82;;;3.60;99.90;;;;;;5068213;28;20103;-47
2022/01/11 07:56:34;;;;;;;32.80;16.52;;;3.50;99.90;;;;;;5060200;28;20029;-45
2022/01/11 07:59:00;;;;;;;27.30;14.93;;;3.50;99.90;;;;;;5048914;28;20021;-45
2022/01/11 08:01:25;;;;;;;25.65;13.48;;;3.50;99.90;;;;;;5051213;28;20033;-45
2022/01/11 08:03:51;;;;;;;29.83;15.00;;;3.50;99.90;;;;;;5047783;28;20025;-47
2022/01/11 08:06:16;;;;;;;30.08;15.57;;;3.30;99.90;;;;;;5049789;28;20475;-47
2022/01/11 08:08:42;;;;;;;26.73;14.15;;;3.40;99.90;;;;;;5066949;28;20483;-45
2022/01/11 08:11:08;;;;;;;28.98;14.93;;;3.30;99.90;;;;;;5075093;28;20034;-47
2022/01/11 08:13:34;;;;;;;28.92;13.73;;;3.30;99.90;;;;;;5066937;28;20685;-44
2022/01/11 08:15:59;;;;;;;24.40;12.23;;;3.20;99.90;;;;;;5068088;28;20036;-45
2022/01/11 08:18:25;;;;;;;29.63;13.77;;;3.20;99.90;;;;;;5053776;28;20074;-44
2022/01/11 08:20:50;;;;;;;27.98;13.88;;;3.20;99.90;;;;;;5060831;28;20041;-44
2022/01/11 08:23:16;;;;;;;24.90;13.38;;;3.20;99.90;;;;;;5070167;28;20047;-45
2022/01/11 08:25:42;;;;;;;24.70;13.30;;;3.30;99.90;;;;;;5073853;28;20100;-46
2022/01/11 08:28:09;;;;;;;30.10;14.68;;;3.30;99.90;;;;;;5052467;28;20517;-45
2022/01/11 08:30:35;;;;;;;26.70;13.43;;;3.30;99.90;;;;;;5066118;28;20024;-44
2022/01/11 08:33:04;;;;;;;24.92;13.15;;;3.40;99.90;;;;;;5047991;28;20035;-44
2022/01/11 08:35:30;;;;;;;27.77;13.68;;;3.40;99.90;;;;;;5051550;28;20093;-46
2022/01/11 08:37:57;;;;;;;31.35;14.07;;;3.40;99.90;;;;;;5075227;28;20021;-46
2022/01/11 08:40:23;;;;;;;25.80;13.23;;;3.50;99.90;;;;;;5065301;28;20031;-45
2022/01/11 08:42:48;;;;;;;30.55;15.65;;;3.50;99.90;;;;;;5048237;28;20096;-45
2022/01/11 08:45:14;;;;;;;25.55;13.23;;;3.60;99.90;;;;;;5048053;28;20024;-44
2022/01/11 08:47:40;;;;;;;29.85;14.18;;;3.60;99.90;;;;;;5052276;28;20036;-44
2022/01/11 08:50:07;;;;;;;25.40;14.27;;;3.70;99.90;;;;;;5060174;28;20029;-46
2022/01/11 08:52:33;;;;;;;29.60;15.90;;;3.70;99.90;;;;;;5055249;28;20021;-44
2022/01/11 08:54:59;;;;;;;31.23;16.45;;;3.80;99.90;;;;;;5051319;28;20044;-45
2022/01/11 08:57:24;;;;;;;28.70;14.32;;;3.80;99.90;;;;;;5065145;28;20032;-44
2022/01/11 08:59:50;;;;;;;30.77;15.43;;;3.90;99.90;;;;;;5069007;28;20071;-44
2022/01/11 09:02:16;;;;;;;29.50;15.38;;;4.00;99.90;;;;;;5062332;28;20383;-45
2022/01/11 09:04:43;;;;;;;29.02;15.77;;;4.20;99.90;;;;;;5071214;28;20024;-45
2022/01/11 09:07:09;;;;;;;34.67;17.17;;;4.30;99.90;;;;;;5076965;28;20024;-46
2022/01/11 09:09:35;;;;;;;32.38;16.77;;;4.40;99.90;;;;;;5071903;28;20656;-47
2022/01/11 09:12:03;;;;;;;26.15;14.70;;;4.40;99.90;;;;;;5052674;28;20040;-47
2022/01/11 09:14:30;;;;;;;33.33;16.85;;;4.50;99.90;;;;;;5051179;28;20033;-44
2022/01/11 09:16:56;;;;;;;31.00;15.95;;;4.70;99.90;;;;;;5052481;28;20025;-44
2022/01/11 09:19:23;;;;;;;28.00;14.63;;;4.80;99.90;;;;;;5065568;28;20031;-46
2022/01/11 09:21:48;;;;;;;31.13;16.38;;;5.00;99.90;;;;;;5082273;28;20020;-44
2022/01/11 09:24:19;;;;;;;36.15;18.00;;;5.20;99.90;;;;;;5066591;28;20091;-45
2022/01/11 09:26:48;;;;;;;40.20;18.25;;;5.20;99.90;;;;;;5053834;28;20111;-47
2022/01/11 09:29:15;;;;;;;36.78;16.17;;;5.30;99.90;;;;;;5066234;28;20028;-47
2022/01/11 09:31:42;;;;;;;30.02;16.02;;;5.40;99.90;;;;;;5054074;28;20394;-44
2022/01/11 09:34:07;;;;;;;34.85;17.15;;;5.40;99.90;;;;;;5049334;28;20021;-46
2022/01/11 09:36:33;;;;;;;31.88;16.55;;;5.50;99.90;;;;;;5072103;28;20038;-45
2022/01/11 09:38:59;;;;;;;26.92;15.50;;;5.50;99.90;;;;;;5083610;28;20077;-44
2022/01/11 09:41:25;;;;;;;30.23;15.05;;;5.40;99.90;;;;;;5074103;28;20025;-44
2022/01/11 09:43:51;;;;;;;35.47;17.83;;;5.50;99.90;;;;;;5058975;28;20043;-45
2022/01/11 09:46:17;;;;;;;35.72;17.55;;;5.40;99.90;;;;;;5056024;28;20047;-47
2022/01/11 09:48:44;;;;;;;30.00;16.40;;;5.40;99.90;;;;;;5051209;28;20539;-45
2022/01/11 09:51:10;;;;;;;31.15;16.70;;;5.50;99.90;;;;;;5058325;28;20498;-46
2022/01/11 09:53:35;;;;;;;36.65;18.13;;;5.50;99.90;;;;;;5060412;28;20020;-44
2022/01/11 09:56:06;;;;;;;38.22;19.30;;;5.40;99.90;;;;;;5060254;28;20032;-44
2022/01/11 09:58:33;;;;;;;;;;;5.50;99.90;;;;;;5060767;28;20035;-44
2022/01/11 10:00:58;;;;;;;34.72;17.60;;;5.40;99.90;;;;;;5058243;28;19924;-45
2022/01/11 10:03:24;;;;;;;32.78;16.52;;;5.40;99.90;;;;;;5061404;28;20033;-44
2022/01/11 10:05:50;;;;;;;35.67;17.75;;;5.40;99.90;;;;;;5058932;28;20482;-44
2022/01/11 10:08:25;;;;;;;36.55;18.88;;;5.30;99.90;;;;;;5059414;28;20029;-46
2022/01/11 10:10:52;;;;;;;36.90;18.40;;;5.40;99.90;;;;;;5063834;28;20111;-44
2022/01/11 10:13:29;;;;;;;31.17;16.85;;;5.40;99.90;;;;;;5059204;28;20028;-44
2022/01/11 10:15:55;;;;;;;33.08;17.58;;;5.60;99.90;;;;;;5055592;28;20345;-46
2022/01/11 10:18:37;;;;;;;34.28;18.30;;;6.00;99.90;;;;;;5059668;28;20021;-45
2022/01/11 10:21:33;;;;;;;34.75;17.67;;;5.80;99.90;;;;;;5060138;28;20030;-45
2022/01/11 10:23:59;;;;;;;34.45;17.17;;;5.80;99.90;;;;;;5056456;28;20028;-45
2022/01/11 10:26:45;;;;;;;35.00;16.95;;;5.70;99.90;;;;;;5055889;28;20429;-46
2022/01/11 10:29:37;;;;;;;30.98;16.27;;;5.80;99.90;;;;;;5056929;28;20053;-45
2022/01/11 10:32:35;;;;;;;34.17;17.90;;;5.90;99.90;;;;;;5057637;28;20116;-45
2022/01/11 10:35:05;;;;;;;31.02;15.80;;;5.90;99.90;;;;;;5047786;28;20049;-48
2022/01/11 10:37:37;;;;;;;35.75;17.25;;;6.00;99.90;;;;;;5058125;28;20028;-45
2022/01/11 10:40:24;;;;;;;38.08;19.27;;;5.90;99.90;;;;;;5063886;28;20028;-45
2022/01/11 10:42:50;;;;;;;37.70;17.15;;;5.70;99.90;;;;;;5060217;28;20031;-46
2022/01/11 10:45:36;;;;;;;34.90;17.98;;;5.80;99.90;;;;;;5058296;28;20009;-47
2022/01/11 10:48:06;;;;;;;36.17;18.33;;;6.00;99.90;;;;;;5057680;28;20032;-45
2022/01/11 10:50:47;;;;;;;35.30;17.48;;;6.10;99.90;;;;;;5056264;28;20539;-45
2022/01/11 10:53:19;;;;;;;34.88;19.10;;;6.20;99.90;;;;;;5057189;28;20279;-44
2022/01/11 10:55:51;;;;;;;34.72;19.55;;;6.10;99.90;;;;;;5055943;28;20017;-44
2022/01/11 10:58:17;;;;;;;29.92;16.58;;;6.20;99.90;;;;;;5060867;28;20031;-44
2022/01/11 11:00:44;;;;;;;28.45;16.02;;;6.30;99.90;;;;;;5054282;28;20024;-45
2022/01/11 11:03:13;;;;;;;34.50;17.88;;;6.40;99.90;;;;;;5058343;28;20023;-45
2022/01/11 11:05:39;;;;;;;31.20;16.52;;;7.00;99.90;;;;;;5056927;28;20094;-45
2022/01/11 11:08:23;;;;;;;36.28;18.08;;;7.20;99.90;;;;;;5057570;28;20029;-45
2022/01/11 11:10:56;;;;;;;26.83;14.45;;;6.90;99.90;;;;;;5064880;28;20098;-44
2022/01/11 11:13:25;;;;;;;35.15;18.25;;;7.20;99.90;;;;;;5058004;28;20378;-44
2022/01/11 11:15:53;;;;;;;33.10;17.35;;;7.40;99.90;;;;;;5055220;28;20096;-45
2022/01/11 11:18:33;;;;;;;35.75;16.60;;;7.40;99.90;;;;;;5055710;28;20024;-44
2022/01/11 11:21:28;;;;;;;36.83;16.92;;;7.20;99.90;;;;;;5054523;28;20016;-44
2022/01/11 11:23:59;;;;;;;37.10;17.98;;;6.50;99.90;;;;;;5065532;28;20095;-44
2022/01/11 11:26:28;;;;;;;32.40;17.77;;;6.40;99.90;;;;;;5065429;28;20090;-45
2022/01/11 11:28:53;;;;;;;34.67;17.40;;;6.20;99.90;;;;;;5067181;28;20021;-43
2022/01/11 11:31:19;;;;;;;34.28;15.80;;;6.20;99.90;;;;;;5054442;28;20032;-46
2022/01/11 11:33:45;;;;;;;30.27;16.17;;;6.20;99.90;;;;;;5067333;28;20035;-45
2022/01/11 11:36:14;;;;;;;32.30;15.93;;;6.30;99.90;;;;;;5067660;28;20094;-47
2022/01/11 11:38:48;;;;;;;34.35;16.92;;;6.30;99.90;;;;;;5066699;28;20023;-44
2022/01/11 11:41:14;;;;;;;37.20;17.00;;;6.40;99.90;;;;;;5076291;28;20082;-45
2022/01/11 11:43:40;;;;;;;38.58;17.38;;;6.30;99.90;;;;;;5066693;28;20020;-43
2022/01/11 11:46:06;;;;;;;34.20;17.40;;;6.40;99.90;;;;;;5065145;28;20016;-44
2022/01/11 11:48:32;;;;;;;33.58;17.33;;;6.40;99.90;;;;;;5061092;28;20056;-43
2022/01/11 11:51:03;;;;;;;37.25;17.38;;;6.30;99.90;;;;;;5052867;28;20122;-44
2022/01/11 11:53:31;;;;;;;34.25;17.67;;;6.40;99.90;;;;;;5046998;28;20205;-43
2022/01/11 11:56:23;;;;;;;29.15;15.85;;;6.40;99.90;;;;;;5046800;28;20021;-43
2022/01/11 11:58:58;;;;;;;29.25;15.98;;;6.60;99.90;;;;;;5056371;28;20041;-44
2022/01/11 12:01:44;;;;;;;41.38;18.92;;;6.80;99.90;;;;;;5062851;28;20031;-43
2022/01/11 12:04:10;;;;;;;35.22;18.17;;;7.00;99.90;;;;;;5055603;28;20026;-44
2022/01/11 12:06:36;;;;;;;32.33;16.48;;;7.40;99.90;;;;;;5087620;28;20059;-43
2022/01/11 12:09:06;;;;;;;31.83;16.63;;;7.70;99.90;;;;;;5056260;28;20063;-46
2022/01/11 12:11:42;;;;;;;28.77;15.57;;;7.30;99.90;;;;;;5065066;28;20666;-45
2022/01/11 12:14:08;;;;;;;37.72;18.63;;;7.30;99.90;;;;;;5067748;28;20020;-44
2022/01/11 12:16:39;;;;;;;35.22;16.25;;;7.10;99.90;;;;;;5079004;28;20027;-44
2022/01/11 12:19:10;;;;;;;27.52;15.02;;;7.40;99.90;;;;;;5077792;28;20029;-44
2022/01/11 12:21:52;;;;;;;25.45;13.85;;;7.20;99.90;;;;;;5054116;28;20021;-44
2022/01/11 12:24:38;;;;;;;28.73;14.05;;;7.40;99.90;;;;;;5059146;28;20017;-43
2022/01/11 12:27:06;;;;;;;31.83;16.77;;;7.20;99.90;;;;;;5061982;28;20025;-44
2022/01/11 12:29:31;;;;;;;31.35;14.93;;;6.60;99.90;;;;;;5059635;28;20036;-45
2022/01/11 12:32:06;;;;;;;24.83;14.20;;;6.90;99.90;;;;;;5064544;28;20032;-44
2022/01/11 12:34:46;;;;;;;33.65;15.00;;;6.80;99.90;;;;;;5070190;28;20021;-44
2022/01/11 12:37:24;;;;;;;29.67;15.30;;;6.50;99.90;;;;;;5056854;28;20143;-45
2022/01/11 12:40:12;;;;;;;34.05;15.45;;;6.30;99.90;;;;;;5067295;28;20162;-44
2022/01/11 12:42:54;;;;;;;30.75;14.48;;;6.30;99.90;;;;;;5073402;28;20016;-44